Time,TemperatureF,DewpointF,PressureIn,WindDirection,WindDirectionDegrees,WindSpeedMPH,WindSpeedGustMPH,Humidity,HourlyPrecipIn,Conditions,Clouds,dailyrainin,SoftwareType,DateUTC
2013-08-05 00:13:00,63.6,45.0,29.96,South,179,0.0,-999.0,52,-99.99,,,0.00,weatherlink.com 1.10,2013-08-05 07:13:00,
2013-08-05 00:28:00,62.1,43.0,29.96,South,179,0.0,-999.0,49,-99.99,,,0.00,weatherlink.com 1.10,2013-08-05 07:28:00,
2013-08-05 00:43:00,60.6,40.0,29.97,South,179,0.0,-999.0,47,-99.99,,,0.00,weatherlink.com 1.10,2013-08-05 07:43:00,
2013-08-05 00:58:00,59.0,38.0,29.97,South,179,0.0,-999.0,45,-99.99,,,0.00,weatherlink.com 1.10,2013-08-05 07:58:00,
2013-08-05 01:13:00,58.4,35.0,29.97,South,179,0.0,-999.0,41,-99.99,,,0.00,weatherlink.com 1.10,2013-08-05 08:13:00,
2013-08-05 01:28:00,58.1,33.0,29.97,South,179,0.0,-999.0,39,-99.99,,,0.00,weatherlink.com 1.10,2013-08-05 08:28:00,
2013-08-05 01:43:00,57.5,32.0,29.97,South,179,0.0,-999.0,38,-99.99,,,0.00,weatherlink.com 1.10,2013-08-05 08:43:00,
2013-08-05 01:58:00,57.6,32.0,29.96,South,179,0.0,-999.0,38,-99.99,,,0.00,weatherlink.com 1.10,2013-08-05 08:58:00,
2013-08-05 02:13:00,56.5,31.0,29.96,South,179,0.0,-999.0,38,-99.99,,,0.00,weatherlink.com 1.10,2013-08-05 09:13:00,
2013-08-05 02:43:00,56.8,31.0,29.97,South,179,0.0,-999.0,37,-99.99,,,0.00,weatherlink.com 1.10,2013-08-05 09:43:00,
2013-08-05 02:58:00,56.2,30.0,29.97,South,179,0.0,-999.0,37,-99.99,,,0.00,weatherlink.com 1.10,2013-08-05 09:58:00,
2013-08-05 03:13:00,55.8,30.0,29.97,South,179,0.0,-999.0,37,-99.99,,,0.00,weatherlink.com 1.10,2013-08-05 10:13:00,
2013-08-05 03:28:00,55.4,29.0,29.97,South,179,0.0,-999.0,37,-99.99,,,0.00,weatherlink.com 1.10,2013-08-05 10:28:00,
2013-08-05 03:43:00,54.3,29.0,29.97,South,179,0.0,-999.0,38,-99.99,,,0.00,weatherlink.com 1.10,2013-08-05 10:43:00,
2013-08-05 04:13:00,56.0,30.0,29.97,South,179,0.0,-999.0,37,-99.99,,,0.00,weatherlink.com 1.10,2013-08-05 11:13:00,
2013-08-05 04:28:00,55.8,30.0,29.97,South,179,0.0,-999.0,37,-99.99,,,0.00,weatherlink.com 1.10,2013-08-05 11:28:00,
2013-08-05 04:43:00,54.9,29.0,29.97,South,179,0.0,-999.0,37,-99.99,,,0.00,weatherlink.com 1.10,2013-08-05 11:43:00,
2013-08-05 05:28:00,52.4,27.0,29.98,South,179,0.0,-999.0,38,-99.99,,,0.00,weatherlink.com 1.10,2013-08-05 12:28:00,
2013-08-05 05:43:00,52.4,27.0,29.98,South,179,0.0,-999.0,38,-99.99,,,0.00,weatherlink.com 1.10,2013-08-05 12:43:00,
2013-08-05 05:58:00,52.0,27.0,29.98,South,179,0.0,-999.0,38,-99.99,,,0.00,weatherlink.com 1.10,2013-08-05 12:58:00,
2013-08-05 06:13:00,52.2,27.0,29.99,South,179,0.0,-999.0,38,-99.99,,,0.00,weatherlink.com 1.10,2013-08-05 13:13:00,
2013-08-05 06:43:00,51.6,27.0,29.99,South,179,0.0,-999.0,38,-99.99,,,0.00,weatherlink.com 1.10,2013-08-05 13:43:00,
2013-08-05 07:13:00,53.2,28.0,30.00,South,179,0.0,-999.0,38,-99.99,,,0.00,weatherlink.com 1.10,2013-08-05 14:13:00,
2013-08-05 07:28:00,54.2,28.0,30.00,South,179,0.0,-999.0,37,-99.99,,,0.00,weatherlink.com 1.10,2013-08-05 14:28:00,
2013-08-05 07:43:00,55.5,29.0,30.00,South,179,0.0,-999.0,37,-99.99,,,0.00,weatherlink.com 1.10,2013-08-05 14:43:00,
2013-08-05 08:13:00,56.1,29.0,30.01,WSW,257,0.0,-999.0,36,-99.99,,,0.00,weatherlink.com 1.10,2013-08-05 15:13:00,
2013-08-05 08:28:00,56.3,29.0,30.01,WSW,257,0.0,-999.0,36,-99.99,,,0.00,weatherlink.com 1.10,2013-08-05 15:28:00,
2013-08-05 08:43:00,56.5,30.0,30.01,WSW,257,0.0,-999.0,36,-99.99,,,0.00,weatherlink.com 1.10,2013-08-05 15:43:00,
2013-08-05 08:58:00,56.8,30.0,30.01,WSW,257,0.0,-999.0,36,-99.99,,,0.00,weatherlink.com 1.10,2013-08-05 15:58:00,
2013-08-05 09:13:00,57.3,30.0,30.01,WSW,257,0.0,-999.0,36,-99.99,,,0.00,weatherlink.com 1.10,2013-08-05 16:13:00,
2013-08-05 09:28:00,57.4,30.0,30.01,WSW,257,0.0,-999.0,36,-99.99,,,0.00,weatherlink.com 1.10,2013-08-05 16:28:00,
2013-08-05 09:43:00,58.0,31.0,30.01,WSW,257,0.0,-999.0,36,-99.99,,,0.00,weatherlink.com 1.10,2013-08-05 16:43:00,
2013-08-05 09:58:00,59.0,32.0,30.01,WSW,254,3.0,-999.0,36,-99.99,,,0.00,weatherlink.com 1.10,2013-08-05 16:58:00,
2013-08-05 10:13:00,60.7,33.0,30.01,West,278,4.0,-999.0,35,-99.99,,,0.00,weatherlink.com 1.10,2013-08-05 17:13:00,
2013-08-05 10:28:00,62.5,35.0,30.00,West,268,0.0,-999.0,36,-99.99,,,0.00,weatherlink.com 1.10,2013-08-05 17:28:00,
2013-08-05 10:43:00,64.4,41.0,30.00,WSW,246,3.0,-999.0,42,-99.99,,,0.00,weatherlink.com 1.10,2013-08-05 17:43:00,
2013-08-05 11:43:00,71.3,56.0,30.00,WSW,237,1.0,-999.0,58,-99.99,,,0.00,weatherlink.com 1.10,2013-08-05 18:43:00,
2013-08-05 11:58:00,72.6,57.0,29.99,WSW,255,3.0,-999.0,59,-99.99,,,0.00,weatherlink.com 1.10,2013-08-05 18:58:00,
2013-08-05 12:13:00,74.4,59.0,29.99,SW,227,0.0,-999.0,58,-99.99,,,0.00,weatherlink.com 1.10,2013-08-05 19:13:00,
2013-08-05 12:28:00,75.1,59.0,29.98,SW,228,1.0,-999.0,58,-99.99,,,0.00,weatherlink.com 1.10,2013-08-05 19:28:00,
2013-08-05 12:43:00,76.8,61.0,29.98,SSW,196,4.0,-999.0,58,-99.99,,,0.00,weatherlink.com 1.10,2013-08-05 19:43:00,
2013-08-05 13:28:00,79.2,62.0,29.96,WSW,251,3.0,-999.0,56,-99.99,,,0.00,weatherlink.com 1.10,2013-08-05 20:28:00,
2013-08-05 13:43:00,80.0,62.0,29.96,NNW,342,7.0,-999.0,55,-99.99,,,0.00,weatherlink.com 1.10,2013-08-05 20:43:00,
2013-08-05 13:58:00,80.9,62.0,29.95,NW,315,6.0,-999.0,53,-99.99,,,0.00,weatherlink.com 1.10,2013-08-05 20:58:00,
2013-08-05 14:28:00,82.6,62.0,29.95,West,268,4.0,-999.0,50,-99.99,,,0.00,weatherlink.com 1.10,2013-08-05 21:28:00,
2013-08-05 14:43:00,83.8,62.0,29.95,West,269,5.0,-999.0,48,-99.99,,,0.00,weatherlink.com 1.10,2013-08-05 21:43:00,
2013-08-05 14:58:00,83.5,61.0,29.94,WSW,247,3.0,-999.0,47,-99.99,,,0.00,weatherlink.com 1.10,2013-08-05 21:58:00,
2013-08-05 15:13:00,84.7,62.0,29.94,NW,312,0.0,-999.0,46,-99.99,,,0.00,weatherlink.com 1.10,2013-08-05 22:13:00,
2013-08-05 15:28:00,84.7,61.0,29.93,West,281,4.0,-999.0,45,-99.99,,,0.00,weatherlink.com 1.10,2013-08-05 22:28:00,
2013-08-05 15:43:00,85.3,61.0,29.93,NNW,329,4.0,-999.0,44,-99.99,,,0.00,weatherlink.com 1.10,2013-08-05 22:43:00,
2013-08-05 15:58:00,85.5,61.0,29.92,NW,305,4.0,-999.0,44,-99.99,,,0.00,weatherlink.com 1.10,2013-08-05 22:58:00,
2013-08-05 16:13:00,85.6,61.0,29.92,WNW,294,1.0,-999.0,43,-99.99,,,0.00,weatherlink.com 1.10,2013-08-05 23:13:00,
2013-08-05 16:28:00,86.1,62.0,29.91,WNW,292,10.0,-999.0,44,-99.99,,,0.00,weatherlink.com 1.10,2013-08-05 23:28:00,
2013-08-05 16:43:00,86.1,62.0,29.91,NW,304,6.0,-999.0,44,-99.99,,,0.00,weatherlink.com 1.10,2013-08-05 23:43:00,
2013-08-05 16:58:00,86.5,63.0,29.90,West,281,9.0,-999.0,45,-99.99,,,0.00,weatherlink.com 1.10,2013-08-05 23:58:00,
2013-08-05 17:13:00,85.9,62.0,29.90,NNE,14,3.0,-999.0,45,-99.99,,,0.00,weatherlink.com 1.10,2013-08-06 00:13:00,
2013-08-05 17:28:00,84.8,63.0,29.90,WSW,255,6.0,-999.0,48,-99.99,,,0.00,weatherlink.com 1.10,2013-08-06 00:28:00,
2013-08-05 17:43:00,85.1,64.0,29.90,WSW,257,4.0,-999.0,49,-99.99,,,0.00,weatherlink.com 1.10,2013-08-06 00:43:00,
2013-08-05 17:58:00,84.2,64.0,29.90,WNW,295,9.0,-999.0,50,-99.99,,,0.00,weatherlink.com 1.10,2013-08-06 00:58:00,
2013-08-05 18:13:00,83.0,64.0,29.90,NW,325,4.0,-999.0,52,-99.99,,,0.00,weatherlink.com 1.10,2013-08-06 01:13:00,
2013-08-05 18:28:00,82.0,63.0,29.90,NNW,329,10.0,-999.0,52,-99.99,,,0.00,weatherlink.com 1.10,2013-08-06 01:28:00,
2013-08-05 18:43:00,81.4,63.0,29.90,NW,314,7.0,-999.0,54,-99.99,,,0.00,weatherlink.com 1.10,2013-08-06 01:43:00,
2013-08-05 18:58:00,80.5,62.0,29.90,NNW,346,4.0,-999.0,54,-99.99,,,0.00,weatherlink.com 1.10,2013-08-06 01:58:00,
2013-08-05 19:13:00,79.3,62.0,29.91,NW,305,9.0,-999.0,55,-99.99,,,0.00,weatherlink.com 1.10,2013-08-06 02:13:00,
2013-08-05 19:28:00,77.9,61.0,29.91,NW,315,3.0,-999.0,56,-99.99,,,0.00,weatherlink.com 1.10,2013-08-06 02:28:00,
2013-08-05 19:58:00,76.0,58.0,29.91,NW,313,2.0,-999.0,54,-99.99,,,0.00,weatherlink.com 1.10,2013-08-06 02:58:00,
2013-08-05 20:13:00,74.5,52.0,29.92,NW,314,2.0,-999.0,45,-99.99,,,0.00,weatherlink.com 1.10,2013-08-06 03:13:00,
2013-08-05 20:28:00,72.9,52.0,29.92,NW,306,1.0,-999.0,48,-99.99,,,0.00,weatherlink.com 1.10,2013-08-06 03:28:00,
2013-08-05 20:58:00,71.6,51.0,29.93,NW,309,3.0,-999.0,48,-99.99,,,0.00,weatherlink.com 1.10,2013-08-06 03:58:00,
2013-08-05 21:13:00,70.4,51.0,29.93,NW,309,0.0,-999.0,51,-99.99,,,0.00,weatherlink.com 1.10,2013-08-06 04:13:00,
2013-08-05 21:28:00,67.7,51.0,29.94,NW,307,0.0,-999.0,55,-99.99,,,0.00,weatherlink.com 1.10,2013-08-06 04:28:00,
2013-08-05 21:43:00,66.8,52.0,29.94,WNW,301,1.0,-999.0,59,-99.99,,,0.00,weatherlink.com 1.10,2013-08-06 04:43:00,
2013-08-05 21:58:00,67.8,53.0,29.94,NW,308,2.0,-999.0,59,-99.99,,,0.00,weatherlink.com 1.10,2013-08-06 04:58:00,
2013-08-05 22:13:00,67.2,52.0,29.95,NW,305,2.0,-999.0,59,-99.99,,,0.00,weatherlink.com 1.10,2013-08-06 05:13:00,
2013-08-05 22:28:00,66.4,51.0,29.95,NW,305,0.0,-999.0,59,-99.99,,,0.00,weatherlink.com 1.10,2013-08-06 05:28:00,
2013-08-05 22:43:00,64.3,50.0,29.95,NW,304,0.0,-999.0,60,-99.99,,,0.00,weatherlink.com 1.10,2013-08-06 05:43:00,
2013-08-05 22:58:00,62.3,48.0,29.95,NW,304,0.0,-999.0,59,-99.99,,,0.00,weatherlink.com 1.10,2013-08-06 05:58:00,
2013-08-05 23:13:00,60.9,46.0,29.95,NW,304,0.0,-999.0,59,-99.99,,,0.00,weatherlink.com 1.10,2013-08-06 06:13:00,
2013-08-05 23:28:00,60.0,44.0,29.95,NW,304,0.0,-999.0,57,-99.99,,,0.00,weatherlink.com 1.10,2013-08-06 06:28:00,
2013-08-05 23:43:00,60.1,44.0,29.95,NW,304,0.0,-999.0,55,-99.99,,,0.00,weatherlink.com 1.10,2013-08-06 06:43:00,
2013-08-05 23:58:00,59.8,43.0,29.95,NW,304,0.0,-999.0,55,-99.99,,,0.00,weatherlink.com 1.10,2013-08-06 06:58:00,